logo
Search for airport 
image banner adimage banner adimage banner ad
image banner ad

WARP - Pulau Pagerungan Besar/Pagerungan

Located in , Indonesia

ICAO - , IATA -

Data provided by Airmate  

General information

Coordinates: S6°57'24" E115°55'57"
Elevation is 13 feet MSL.
Magnetic variation is 1° East
View others Airports in Jawa Timur

Operational data

Special qualification required
Current time UTC:
Current local time:
Weather at : - ( 0 km )
METAR: LMML 152245Z 07008KT 040V100 9999 VCTS SCT080CB 20/12 Q1013 TEMPO 6000 TSRA BKN080CB
View NOTAMs / SUP AIP / TFR affecting this airport [VIEW]
Communications frequencies: [VIEW]

Runways:

RWY identifierQFULength (ft)Width (ft)SurfaceLDA (ft)
12300298UNK
30300298UNK

Airport contact information

Address: Indonesia

Satellite view of WARP